sensor_id;sensor_type;location;lat;lon;timestamp;P1;durP1;ratioP1;P2;durP2;ratioP2
25758;SDS011;13604;52.496;13.456;2023-09-07T00:01:08;10.43;;;6.63;;
25758;SDS011;13604;52.496;13.456;2023-09-07T00:03:34;8.52;;;6.75;;
25758;SDS011;13604;52.496;13.456;2023-09-07T00:05:59;15.05;;;7.85;;
25758;SDS011;13604;52.496;13.456;2023-09-07T00:08:24;7.88;;;6.53;;
25758;SDS011;13604;52.496;13.456;2023-09-07T00:10:50;7.88;;;6.45;;
25758;SDS011;13604;52.496;13.456;2023-09-07T00:13:15;7.68;;;6.80;;
25758;SDS011;13604;52.496;13.456;2023-09-07T00:15:42;7.60;;;6.68;;
25758;SDS011;13604;52.496;13.456;2023-09-07T00:18:07;12.13;;;7.95;;
25758;SDS011;13604;52.496;13.456;2023-09-07T00:20:33;10.05;;;6.60;;
25758;SDS011;13604;52.496;13.456;2023-09-07T00:22:58;10.43;;;7.53;;
25758;SDS011;13604;52.496;13.456;2023-09-07T00:25:25;9.68;;;6.93;;
25758;SDS011;13604;52.496;13.456;2023-09-07T00:27:50;9.70;;;7.93;;
25758;SDS011;13604;52.496;13.456;2023-09-07T00:30:16;10.77;;;8.57;;
25758;SDS011;13604;52.496;13.456;2023-09-07T00:32:41;8.88;;;7.22;;
25758;SDS011;13604;52.496;13.456;2023-09-07T00:35:06;10.05;;;8.52;;
25758;SDS011;13604;52.496;13.456;2023-09-07T00:37:32;10.27;;;7.60;;
25758;SDS011;13604;52.496;13.456;2023-09-07T00:39:58;9.63;;;7.40;;
25758;SDS011;13604;52.496;13.456;2023-09-07T00:42:23;18.08;;;7.97;;
25758;SDS011;13604;52.496;13.456;2023-09-07T00:44:48;9.20;;;7.72;;
25758;SDS011;13604;52.496;13.456;2023-09-07T00:47:14;8.95;;;7.53;;
25758;SDS011;13604;52.496;13.456;2023-09-07T00:49:40;9.05;;;7.03;;
25758;SDS011;13604;52.496;13.456;2023-09-07T00:52:05;10.13;;;7.38;;
25758;SDS011;13604;52.496;13.456;2023-09-07T00:54:33;10.02;;;7.82;;
25758;SDS011;13604;52.496;13.456;2023-09-07T00:56:59;10.57;;;7.18;;
25758;SDS011;13604;52.496;13.456;2023-09-07T00:59:24;10.60;;;7.70;;
25758;SDS011;13604;52.496;13.456;2023-09-07T01:01:50;10.10;;;7.30;;
25758;SDS011;13604;52.496;13.456;2023-09-07T01:04:15;9.50;;;7.43;;
25758;SDS011;13604;52.496;13.456;2023-09-07T01:06:50;11.38;;;6.97;;
25758;SDS011;13604;52.496;13.456;2023-09-07T01:09:19;7.60;;;6.80;;
25758;SDS011;13604;52.496;13.456;2023-09-07T01:11:48;9.43;;;6.55;;
25758;SDS011;13604;52.496;13.456;2023-09-07T01:14:14;12.32;;;7.75;;
25758;SDS011;13604;52.496;13.456;2023-09-07T01:16:39;10.18;;;7.28;;
25758;SDS011;13604;52.496;13.456;2023-09-07T01:19:06;9.55;;;7.40;;
25758;SDS011;13604;52.496;13.456;2023-09-07T01:21:35;8.30;;;6.80;;
25758;SDS011;13604;52.496;13.456;2023-09-07T01:24:01;9.00;;;7.43;;
25758;SDS011;13604;52.496;13.456;2023-09-07T01:26:31;11.38;;;7.95;;
25758;SDS011;13604;52.496;13.456;2023-09-07T01:28:57;10.25;;;8.10;;
25758;SDS011;13604;52.496;13.456;2023-09-07T01:31:22;13.25;;;8.68;;
25758;SDS011;13604;52.496;13.456;2023-09-07T01:33:47;10.40;;;8.20;;
25758;SDS011;13604;52.496;13.456;2023-09-07T01:36:13;10.93;;;8.73;;
25758;SDS011;13604;52.496;13.456;2023-09-07T01:38:38;14.48;;;8.70;;
25758;SDS011;13604;52.496;13.456;2023-09-07T01:41:03;10.05;;;7.43;;
25758;SDS011;13604;52.496;13.456;2023-09-07T01:43:28;8.77;;;7.90;;
25758;SDS011;13604;52.496;13.456;2023-09-07T01:45:54;10.25;;;7.63;;
25758;SDS011;13604;52.496;13.456;2023-09-07T01:48:19;10.65;;;7.80;;
25758;SDS011;13604;52.496;13.456;2023-09-07T01:50:44;9.95;;;7.57;;
25758;SDS011;13604;52.496;13.456;2023-09-07T01:53:10;13.40;;;8.07;;
25758;SDS011;13604;52.496;13.456;2023-09-07T01:55:35;13.15;;;7.63;;
25758;SDS011;13604;52.496;13.456;2023-09-07T01:58:00;9.02;;;7.35;;
25758;SDS011;13604;52.496;13.456;2023-09-07T02:00:25;11.25;;;7.85;;
25758;SDS011;13604;52.496;13.456;2023-09-07T02:02:51;12.48;;;8.23;;
25758;SDS011;13604;52.496;13.456;2023-09-07T02:05:16;11.57;;;8.43;;
25758;SDS011;13604;52.496;13.456;2023-09-07T02:07:42;10.70;;;7.63;;
25758;SDS011;13604;52.496;13.456;2023-09-07T02:10:08;8.80;;;7.50;;
25758;SDS011;13604;52.496;13.456;2023-09-07T02:12:33;15.25;;;7.80;;
25758;SDS011;13604;52.496;13.456;2023-09-07T02:15:00;18.42;;;8.55;;
25758;SDS011;13604;52.496;13.456;2023-09-07T02:17:27;8.95;;;7.82;;
25758;SDS011;13604;52.496;13.456;2023-09-07T02:19:52;10.63;;;7.50;;
25758;SDS011;13604;52.496;13.456;2023-09-07T02:22:18;8.95;;;8.02;;
25758;SDS011;13604;52.496;13.456;2023-09-07T02:24:43;10.90;;;8.13;;
25758;SDS011;13604;52.496;13.456;2023-09-07T02:27:08;12.13;;;8.27;;
25758;SDS011;13604;52.496;13.456;2023-09-07T02:29:34;10.93;;;8.77;;
25758;SDS011;13604;52.496;13.456;2023-09-07T02:31:59;11.43;;;7.95;;
25758;SDS011;13604;52.496;13.456;2023-09-07T02:34:24;9.65;;;7.07;;
25758;SDS011;13604;52.496;13.456;2023-09-07T02:36:50;10.18;;;7.13;;
25758;SDS011;13604;52.496;13.456;2023-09-07T02:39:15;10.35;;;7.95;;
25758;SDS011;13604;52.496;13.456;2023-09-07T02:41:40;10.68;;;8.15;;
25758;SDS011;13604;52.496;13.456;2023-09-07T02:44:06;9.88;;;7.25;;
25758;SDS011;13604;52.496;13.456;2023-09-07T02:46:31;10.63;;;7.70;;
25758;SDS011;13604;52.496;13.456;2023-09-07T02:48:56;10.48;;;7.68;;
25758;SDS011;13604;52.496;13.456;2023-09-07T02:51:23;13.80;;;7.65;;
25758;SDS011;13604;52.496;13.456;2023-09-07T02:53:48;11.52;;;8.57;;
25758;SDS011;13604;52.496;13.456;2023-09-07T02:56:14;10.88;;;7.80;;
25758;SDS011;13604;52.496;13.456;2023-09-07T02:58:39;9.63;;;7.70;;
25758;SDS011;13604;52.496;13.456;2023-09-07T03:01:07;11.13;;;8.10;;
25758;SDS011;13604;52.496;13.456;2023-09-07T03:03:35;8.75;;;7.35;;
25758;SDS011;13604;52.496;13.456;2023-09-07T03:06:11;13.25;;;8.23;;
25758;SDS011;13604;52.496;13.456;2023-09-07T03:08:37;8.75;;;7.75;;
25758;SDS011;13604;52.496;13.456;2023-09-07T03:11:03;8.15;;;7.13;;
25758;SDS011;13604;52.496;13.456;2023-09-07T03:13:29;9.25;;;7.47;;
25758;SDS011;13604;52.496;13.456;2023-09-07T03:15:55;9.40;;;7.15;;
25758;SDS011;13604;52.496;13.456;2023-09-07T03:18:20;9.75;;;7.40;;
25758;SDS011;13604;52.496;13.456;2023-09-07T03:20:46;10.88;;;8.02;;
25758;SDS011;13604;52.496;13.456;2023-09-07T03:23:12;9.05;;;6.72;;
25758;SDS011;13604;52.496;13.456;2023-09-07T03:25:37;9.30;;;6.85;;
25758;SDS011;13604;52.496;13.456;2023-09-07T03:28:03;11.10;;;7.82;;
25758;SDS011;13604;52.496;13.456;2023-09-07T03:30:28;10.18;;;8.32;;
25758;SDS011;13604;52.496;13.456;2023-09-07T03:32:54;15.05;;;8.38;;
25758;SDS011;13604;52.496;13.456;2023-09-07T03:35:19;8.90;;;8.00;;
25758;SDS011;13604;52.496;13.456;2023-09-07T03:37:45;11.10;;;8.88;;
25758;SDS011;13604;52.496;13.456;2023-09-07T03:40:10;11.85;;;7.80;;
25758;SDS011;13604;52.496;13.456;2023-09-07T03:42:35;9.80;;;7.85;;
25758;SDS011;13604;52.496;13.456;2023-09-07T03:45:01;12.70;;;8.57;;
25758;SDS011;13604;52.496;13.456;2023-09-07T03:47:26;9.35;;;8.05;;
25758;SDS011;13604;52.496;13.456;2023-09-07T03:49:55;10.10;;;8.23;;
25758;SDS011;13604;52.496;13.456;2023-09-07T03:52:22;11.45;;;8.30;;
25758;SDS011;13604;52.496;13.456;2023-09-07T03:54:49;12.90;;;9.02;;
25758;SDS011;13604;52.496;13.456;2023-09-07T03:57:15;10.27;;;8.68;;
25758;SDS011;13604;52.496;13.456;2023-09-07T03:59:41;10.82;;;8.82;;
25758;SDS011;13604;52.496;13.456;2023-09-07T04:02:06;11.48;;;9.00;;
25758;SDS011;13604;52.496;13.456;2023-09-07T04:04:31;14.95;;;9.57;;
25758;SDS011;13604;52.496;13.456;2023-09-07T04:06:56;10.60;;;9.02;;
25758;SDS011;13604;52.496;13.456;2023-09-07T04:09:22;12.45;;;9.65;;
25758;SDS011;13604;52.496;13.456;2023-09-07T04:11:47;14.95;;;9.48;;
25758;SDS011;13604;52.496;13.456;2023-09-07T04:14:13;13.52;;;9.65;;
25758;SDS011;13604;52.496;13.456;2023-09-07T04:16:38;14.38;;;9.82;;
25758;SDS011;13604;52.496;13.456;2023-09-07T04:19:03;17.83;;;9.65;;
25758;SDS011;13604;52.496;13.456;2023-09-07T04:21:29;12.82;;;9.40;;
25758;SDS011;13604;52.496;13.456;2023-09-07T04:23:54;10.73;;;8.45;;
25758;SDS011;13604;52.496;13.456;2023-09-07T04:26:19;13.25;;;9.52;;
25758;SDS011;13604;52.496;13.456;2023-09-07T04:28:45;12.55;;;9.52;;
25758;SDS011;13604;52.496;13.456;2023-09-07T04:31:10;12.73;;;9.60;;
25758;SDS011;13604;52.496;13.456;2023-09-07T04:33:36;22.17;;;9.45;;
25758;SDS011;13604;52.496;13.456;2023-09-07T04:36:14;11.43;;;8.77;;
25758;SDS011;13604;52.496;13.456;2023-09-07T04:38:40;12.27;;;9.30;;
25758;SDS011;13604;52.496;13.456;2023-09-07T04:41:06;12.95;;;9.20;;
25758;SDS011;13604;52.496;13.456;2023-09-07T04:43:35;11.32;;;8.60;;
25758;SDS011;13604;52.496;13.456;2023-09-07T04:46:01;12.43;;;9.50;;
25758;SDS011;13604;52.496;13.456;2023-09-07T04:48:27;14.85;;;10.13;;
25758;SDS011;13604;52.496;13.456;2023-09-07T04:50:59;11.77;;;8.57;;
25758;SDS011;13604;52.496;13.456;2023-09-07T04:53:28;17.75;;;8.50;;
25758;SDS011;13604;52.496;13.456;2023-09-07T04:55:54;13.55;;;9.30;;
25758;SDS011;13604;52.496;13.456;2023-09-07T04:58:19;12.43;;;9.15;;
25758;SDS011;13604;52.496;13.456;2023-09-07T05:00:44;16.38;;;9.02;;
25758;SDS011;13604;52.496;13.456;2023-09-07T05:03:10;15.23;;;9.10;;
25758;SDS011;13604;52.496;13.456;2023-09-07T05:05:35;9.15;;;7.55;;
25758;SDS011;13604;52.496;13.456;2023-09-07T05:08:00;11.57;;;8.70;;
25758;SDS011;13604;52.496;13.456;2023-09-07T05:10:25;10.13;;;8.73;;
25758;SDS011;13604;52.496;13.456;2023-09-07T05:12:51;11.23;;;8.00;;
25758;SDS011;13604;52.496;13.456;2023-09-07T05:15:17;10.43;;;8.38;;
25758;SDS011;13604;52.496;13.456;2023-09-07T05:17:42;12.48;;;9.07;;
25758;SDS011;13604;52.496;13.456;2023-09-07T05:20:07;12.60;;;9.13;;
25758;SDS011;13604;52.496;13.456;2023-09-07T05:22:34;12.27;;;8.25;;
25758;SDS011;13604;52.496;13.456;2023-09-07T05:25:02;15.73;;;8.40;;
25758;SDS011;13604;52.496;13.456;2023-09-07T05:27:28;12.20;;;8.02;;
25758;SDS011;13604;52.496;13.456;2023-09-07T05:29:53;16.42;;;9.10;;
25758;SDS011;13604;52.496;13.456;2023-09-07T05:32:18;13.50;;;8.52;;
25758;SDS011;13604;52.496;13.456;2023-09-07T05:34:44;16.95;;;9.93;;
25758;SDS011;13604;52.496;13.456;2023-09-07T05:37:09;13.15;;;8.88;;
25758;SDS011;13604;52.496;13.456;2023-09-07T05:39:34;10.45;;;7.93;;
25758;SDS011;13604;52.496;13.456;2023-09-07T05:41:59;14.73;;;8.50;;
25758;SDS011;13604;52.496;13.456;2023-09-07T05:44:25;12.27;;;7.97;;
25758;SDS011;13604;52.496;13.456;2023-09-07T05:46:50;11.35;;;8.10;;
25758;SDS011;13604;52.496;13.456;2023-09-07T05:49:15;11.27;;;7.90;;
25758;SDS011;13604;52.496;13.456;2023-09-07T05:51:41;13.90;;;8.90;;
25758;SDS011;13604;52.496;13.456;2023-09-07T05:54:06;15.00;;;8.38;;
25758;SDS011;13604;52.496;13.456;2023-09-07T05:56:32;8.52;;;7.28;;
25758;SDS011;13604;52.496;13.456;2023-09-07T05:58:58;9.82;;;7.32;;
25758;SDS011;13604;52.496;13.456;2023-09-07T06:01:24;10.48;;;7.25;;
25758;SDS011;13604;52.496;13.456;2023-09-07T06:03:49;10.55;;;7.68;;
25758;SDS011;13604;52.496;13.456;2023-09-07T06:06:14;9.30;;;6.80;;
25758;SDS011;13604;52.496;13.456;2023-09-07T06:08:39;10.57;;;7.43;;
25758;SDS011;13604;52.496;13.456;2023-09-07T06:11:05;8.10;;;6.32;;
25758;SDS011;13604;52.496;13.456;2023-09-07T06:13:30;9.52;;;7.40;;
25758;SDS011;13604;52.496;13.456;2023-09-07T06:15:56;11.75;;;7.82;;
25758;SDS011;13604;52.496;13.456;2023-09-07T06:18:21;10.75;;;7.18;;
25758;SDS011;13604;52.496;13.456;2023-09-07T06:20:46;12.43;;;8.02;;
25758;SDS011;13604;52.496;13.456;2023-09-07T06:23:12;11.55;;;7.68;;
25758;SDS011;13604;52.496;13.456;2023-09-07T06:25:37;14.02;;;6.82;;
25758;SDS011;13604;52.496;13.456;2023-09-07T06:28:03;11.43;;;6.63;;
25758;SDS011;13604;52.496;13.456;2023-09-07T06:30:28;7.13;;;6.20;;
25758;SDS011;13604;52.496;13.456;2023-09-07T06:32:53;10.10;;;6.72;;
25758;SDS011;13604;52.496;13.456;2023-09-07T06:35:19;10.90;;;6.45;;
25758;SDS011;13604;52.496;13.456;2023-09-07T06:37:44;11.32;;;7.18;;
25758;SDS011;13604;52.496;13.456;2023-09-07T06:40:10;13.23;;;7.72;;
25758;SDS011;13604;52.496;13.456;2023-09-07T06:42:35;12.38;;;7.82;;
25758;SDS011;13604;52.496;13.456;2023-09-07T06:45:01;13.02;;;7.22;;
25758;SDS011;13604;52.496;13.456;2023-09-07T06:47:27;12.00;;;7.60;;
25758;SDS011;13604;52.496;13.456;2023-09-07T06:49:53;12.35;;;7.47;;
25758;SDS011;13604;52.496;13.456;2023-09-07T06:52:19;11.45;;;7.40;;
25758;SDS011;13604;52.496;13.456;2023-09-07T06:54:44;12.77;;;7.22;;
25758;SDS011;13604;52.496;13.456;2023-09-07T06:57:09;8.52;;;6.32;;
25758;SDS011;13604;52.496;13.456;2023-09-07T06:59:34;14.82;;;7.20;;
25758;SDS011;13604;52.496;13.456;2023-09-07T07:02:00;12.68;;;7.10;;
25758;SDS011;13604;52.496;13.456;2023-09-07T07:04:25;15.90;;;7.07;;
25758;SDS011;13604;52.496;13.456;2023-09-07T07:06:51;11.13;;;6.78;;
25758;SDS011;13604;52.496;13.456;2023-09-07T07:09:16;8.88;;;5.85;;
25758;SDS011;13604;52.496;13.456;2023-09-07T07:11:42;15.90;;;7.30;;
25758;SDS011;13604;52.496;13.456;2023-09-07T07:14:08;10.77;;;6.10;;
25758;SDS011;13604;52.496;13.456;2023-09-07T07:16:33;8.27;;;6.10;;
25758;SDS011;13604;52.496;13.456;2023-09-07T07:18:59;9.73;;;5.40;;
25758;SDS011;13604;52.496;13.456;2023-09-07T07:21:24;9.93;;;6.00;;
25758;SDS011;13604;52.496;13.456;2023-09-07T07:23:50;6.65;;;5.40;;
25758;SDS011;13604;52.496;13.456;2023-09-07T07:26:15;8.95;;;5.88;;
25758;SDS011;13604;52.496;13.456;2023-09-07T07:28:40;8.23;;;6.33;;
25758;SDS011;13604;52.496;13.456;2023-09-07T07:31:09;7.73;;;5.33;;
25758;SDS011;13604;52.496;13.456;2023-09-07T07:33:34;10.35;;;6.03;;
25758;SDS011;13604;52.496;13.456;2023-09-07T07:35:59;8.75;;;5.30;;
25758;SDS011;13604;52.496;13.456;2023-09-07T07:38:25;12.07;;;5.70;;
25758;SDS011;13604;52.496;13.456;2023-09-07T07:40:50;13.98;;;6.80;;
25758;SDS011;13604;52.496;13.456;2023-09-07T07:43:17;8.10;;;5.47;;
25758;SDS011;13604;52.496;13.456;2023-09-07T07:45:43;9.93;;;6.05;;
25758;SDS011;13604;52.496;13.456;2023-09-07T07:48:08;9.77;;;5.35;;
25758;SDS011;13604;52.496;13.456;2023-09-07T07:50:37;8.25;;;5.20;;
25758;SDS011;13604;52.496;13.456;2023-09-07T07:53:04;12.10;;;6.15;;
25758;SDS011;13604;52.496;13.456;2023-09-07T07:55:29;7.68;;;5.20;;
25758;SDS011;13604;52.496;13.456;2023-09-07T07:57:54;9.90;;;5.70;;
25758;SDS011;13604;52.496;13.456;2023-09-07T08:02:34;11.77;;;5.82;;
25758;SDS011;13604;52.496;13.456;2023-09-07T08:05:00;11.40;;;6.63;;
25758;SDS011;13604;52.496;13.456;2023-09-07T08:07:25;8.60;;;5.60;;
25758;SDS011;13604;52.496;13.456;2023-09-07T08:09:51;9.25;;;5.45;;
25758;SDS011;13604;52.496;13.456;2023-09-07T08:12:17;6.93;;;4.70;;
25758;SDS011;13604;52.496;13.456;2023-09-07T08:14:42;11.30;;;6.40;;
25758;SDS011;13604;52.496;13.456;2023-09-07T08:17:08;13.43;;;5.60;;
25758;SDS011;13604;52.496;13.456;2023-09-07T08:19:33;10.10;;;5.65;;
25758;SDS011;13604;52.496;13.456;2023-09-07T08:21:58;8.38;;;4.88;;
25758;SDS011;13604;52.496;13.456;2023-09-07T08:24:24;7.03;;;4.85;;
25758;SDS011;13604;52.496;13.456;2023-09-07T08:26:49;11.50;;;4.95;;
25758;SDS011;13604;52.496;13.456;2023-09-07T08:29:16;7.80;;;4.32;;
25758;SDS011;13604;52.496;13.456;2023-09-07T08:31:42;9.82;;;5.40;;
25758;SDS011;13604;52.496;13.456;2023-09-07T08:34:10;7.60;;;5.10;;
25758;SDS011;13604;52.496;13.456;2023-09-07T08:36:36;9.88;;;4.68;;
25758;SDS011;13604;52.496;13.456;2023-09-07T08:39:01;9.25;;;4.78;;
25758;SDS011;13604;52.496;13.456;2023-09-07T08:41:30;10.70;;;4.88;;
25758;SDS011;13604;52.496;13.456;2023-09-07T08:43:57;7.90;;;4.50;;
25758;SDS011;13604;52.496;13.456;2023-09-07T08:46:24;8.00;;;5.00;;
25758;SDS011;13604;52.496;13.456;2023-09-07T08:48:50;9.77;;;5.00;;
25758;SDS011;13604;52.496;13.456;2023-09-07T08:51:16;10.45;;;5.13;;
25758;SDS011;13604;52.496;13.456;2023-09-07T08:53:43;6.55;;;4.57;;
25758;SDS011;13604;52.496;13.456;2023-09-07T08:56:11;8.25;;;5.28;;
25758;SDS011;13604;52.496;13.456;2023-09-07T08:58:37;9.80;;;4.80;;
25758;SDS011;13604;52.496;13.456;2023-09-07T09:01:02;10.55;;;4.70;;
25758;SDS011;13604;52.496;13.456;2023-09-07T09:03:28;7.25;;;4.32;;
25758;SDS011;13604;52.496;13.456;2023-09-07T09:05:55;7.20;;;4.65;;
25758;SDS011;13604;52.496;13.456;2023-09-07T09:08:21;10.48;;;5.25;;
25758;SDS011;13604;52.496;13.456;2023-09-07T09:10:49;8.98;;;4.43;;
25758;SDS011;13604;52.496;13.456;2023-09-07T09:13:32;7.57;;;4.70;;
25758;SDS011;13604;52.496;13.456;2023-09-07T09:16:00;5.40;;;4.75;;
25758;SDS011;13604;52.496;13.456;2023-09-07T09:18:26;8.68;;;5.00;;
25758;SDS011;13604;52.496;13.456;2023-09-07T09:20:52;8.82;;;4.68;;
25758;SDS011;13604;52.496;13.456;2023-09-07T09:23:18;7.25;;;4.15;;
25758;SDS011;13604;52.496;13.456;2023-09-07T09:25:43;7.75;;;4.32;;
25758;SDS011;13604;52.496;13.456;2023-09-07T09:28:09;5.47;;;4.30;;
25758;SDS011;13604;52.496;13.456;2023-09-07T09:30:35;8.13;;;4.90;;
25758;SDS011;13604;52.496;13.456;2023-09-07T09:33:00;7.25;;;4.43;;
25758;SDS011;13604;52.496;13.456;2023-09-07T09:35:26;8.68;;;4.63;;
25758;SDS011;13604;52.496;13.456;2023-09-07T09:37:52;6.28;;;4.72;;
25758;SDS011;13604;52.496;13.456;2023-09-07T09:40:17;8.02;;;4.57;;
25758;SDS011;13604;52.496;13.456;2023-09-07T09:42:43;6.93;;;4.70;;
25758;SDS011;13604;52.496;13.456;2023-09-07T09:45:09;8.85;;;4.93;;
25758;SDS011;13604;52.496;13.456;2023-09-07T09:47:42;6.03;;;4.30;;
25758;SDS011;13604;52.496;13.456;2023-09-07T09:50:10;6.78;;;4.20;;
25758;SDS011;13604;52.496;13.456;2023-09-07T09:52:36;5.20;;;4.38;;
25758;SDS011;13604;52.496;13.456;2023-09-07T09:55:06;8.20;;;4.47;;
25758;SDS011;13604;52.496;13.456;2023-09-07T09:57:33;5.28;;;4.45;;
25758;SDS011;13604;52.496;13.456;2023-09-07T10:00:00;6.10;;;4.40;;
25758;SDS011;13604;52.496;13.456;2023-09-07T10:02:34;6.00;;;4.30;;
25758;SDS011;13604;52.496;13.456;2023-09-07T10:05:02;6.05;;;3.67;;
25758;SDS011;13604;52.496;13.456;2023-09-07T10:07:45;7.53;;;4.18;;
25758;SDS011;13604;52.496;13.456;2023-09-07T10:10:13;6.80;;;4.38;;
25758;SDS011;13604;52.496;13.456;2023-09-07T10:12:40;8.90;;;3.88;;
25758;SDS011;13604;52.496;13.456;2023-09-07T10:15:21;6.05;;;3.60;;
25758;SDS011;13604;52.496;13.456;2023-09-07T10:17:50;5.20;;;3.47;;
25758;SDS011;13604;52.496;13.456;2023-09-07T10:20:49;4.78;;;3.80;;
25758;SDS011;13604;52.496;13.456;2023-09-07T10:23:17;5.78;;;4.20;;
25758;SDS011;13604;52.496;13.456;2023-09-07T10:25:46;6.63;;;3.75;;
25758;SDS011;13604;52.496;13.456;2023-09-07T10:28:22;5.40;;;3.53;;
25758;SDS011;13604;52.496;13.456;2023-09-07T10:31:33;9.57;;;3.75;;
25758;SDS011;13604;52.496;13.456;2023-09-07T10:33:40;7.32;;;3.55;;
25758;SDS011;13604;52.496;13.456;2023-09-07T10:36:06;5.22;;;4.53;;
25758;SDS011;13604;52.496;13.456;2023-09-07T10:38:32;3.97;;;3.45;;
25758;SDS011;13604;52.496;13.456;2023-09-07T10:40:59;6.05;;;3.80;;
25758;SDS011;13604;52.496;13.456;2023-09-07T10:43:26;6.18;;;4.10;;
25758;SDS011;13604;52.496;13.456;2023-09-07T10:45:53;4.22;;;3.65;;
25758;SDS011;13604;52.496;13.456;2023-09-07T10:48:22;5.88;;;3.85;;
25758;SDS011;13604;52.496;13.456;2023-09-07T10:50:47;4.32;;;3.88;;
25758;SDS011;13604;52.496;13.456;2023-09-07T10:53:14;6.07;;;3.60;;
25758;SDS011;13604;52.496;13.456;2023-09-07T10:55:39;5.68;;;4.22;;
25758;SDS011;13604;52.496;13.456;2023-09-07T10:58:05;6.03;;;3.63;;
25758;SDS011;13604;52.496;13.456;2023-09-07T11:00:30;4.63;;;3.47;;
25758;SDS011;13604;52.496;13.456;2023-09-07T11:02:56;5.17;;;3.07;;
25758;SDS011;13604;52.496;13.456;2023-09-07T11:05:21;4.53;;;3.53;;
25758;SDS011;13604;52.496;13.456;2023-09-07T11:07:46;5.90;;;3.70;;
25758;SDS011;13604;52.496;13.456;2023-09-07T11:10:12;4.07;;;3.05;;
25758;SDS011;13604;52.496;13.456;2023-09-07T11:12:38;6.83;;;3.20;;
25758;SDS011;13604;52.496;13.456;2023-09-07T11:15:04;4.10;;;3.00;;
25758;SDS011;13604;52.496;13.456;2023-09-07T11:17:29;3.78;;;3.25;;
25758;SDS011;13604;52.496;13.456;2023-09-07T11:19:54;5.65;;;3.38;;
25758;SDS011;13604;52.496;13.456;2023-09-07T11:22:20;3.60;;;3.30;;
25758;SDS011;13604;52.496;13.456;2023-09-07T11:24:46;3.38;;;2.85;;
25758;SDS011;13604;52.496;13.456;2023-09-07T11:27:11;4.70;;;3.08;;
25758;SDS011;13604;52.496;13.456;2023-09-07T11:29:36;3.77;;;2.73;;
25758;SDS011;13604;52.496;13.456;2023-09-07T11:32:09;3.72;;;3.35;;
25758;SDS011;13604;52.496;13.456;2023-09-07T11:34:35;8.77;;;3.03;;
25758;SDS011;13604;52.496;13.456;2023-09-07T11:37:11;3.45;;;3.15;;
25758;SDS011;13604;52.496;13.456;2023-09-07T11:39:36;6.70;;;3.03;;
25758;SDS011;13604;52.496;13.456;2023-09-07T11:42:01;3.60;;;3.25;;
25758;SDS011;13604;52.496;13.456;2023-09-07T11:44:27;4.90;;;3.80;;
25758;SDS011;13604;52.496;13.456;2023-09-07T11:46:52;5.93;;;3.40;;
25758;SDS011;13604;52.496;13.456;2023-09-07T11:49:17;3.65;;;3.15;;
25758;SDS011;13604;52.496;13.456;2023-09-07T11:51:45;8.55;;;2.90;;
25758;SDS011;13604;52.496;13.456;2023-09-07T11:54:10;3.10;;;2.80;;
25758;SDS011;13604;52.496;13.456;2023-09-07T11:56:36;4.85;;;2.85;;
25758;SDS011;13604;52.496;13.456;2023-09-07T11:59:04;4.55;;;2.85;;
25758;SDS011;13604;52.496;13.456;2023-09-07T12:02:34;4.20;;;3.10;;
25758;SDS011;13604;52.496;13.456;2023-09-07T12:08:21;5.32;;;3.20;;
25758;SDS011;13604;52.496;13.456;2023-09-07T12:10:47;4.10;;;3.43;;
25758;SDS011;13604;52.496;13.456;2023-09-07T12:13:12;6.10;;;3.33;;
25758;SDS011;13604;52.496;13.456;2023-09-07T12:15:37;4.87;;;3.00;;
25758;SDS011;13604;52.496;13.456;2023-09-07T12:18:03;5.20;;;3.33;;
25758;SDS011;13604;52.496;13.456;2023-09-07T12:20:28;4.82;;;2.88;;
25758;SDS011;13604;52.496;13.456;2023-09-07T12:22:53;8.13;;;3.30;;
25758;SDS011;13604;52.496;13.456;2023-09-07T12:25:19;5.43;;;3.50;;
25758;SDS011;13604;52.496;13.456;2023-09-07T12:27:44;3.23;;;2.93;;
25758;SDS011;13604;52.496;13.456;2023-09-07T12:30:11;7.72;;;3.53;;
25758;SDS011;13604;52.496;13.456;2023-09-07T12:32:38;3.08;;;2.78;;
25758;SDS011;13604;52.496;13.456;2023-09-07T12:35:05;4.93;;;3.25;;
25758;SDS011;13604;52.496;13.456;2023-09-07T12:37:33;3.30;;;2.80;;
25758;SDS011;13604;52.496;13.456;2023-09-07T12:39:59;3.35;;;3.05;;
25758;SDS011;13604;52.496;13.456;2023-09-07T12:42:25;9.30;;;3.30;;
25758;SDS011;13604;52.496;13.456;2023-09-07T12:44:50;6.30;;;2.97;;
25758;SDS011;13604;52.496;13.456;2023-09-07T12:47:15;3.33;;;3.03;;
25758;SDS011;13604;52.496;13.456;2023-09-07T12:49:41;5.87;;;3.37;;
25758;SDS011;13604;52.496;13.456;2023-09-07T12:52:06;3.95;;;3.15;;
25758;SDS011;13604;52.496;13.456;2023-09-07T12:54:35;4.43;;;3.25;;
25758;SDS011;13604;52.496;13.456;2023-09-07T12:57:01;3.35;;;3.05;;
25758;SDS011;13604;52.496;13.456;2023-09-07T12:59:26;3.90;;;3.35;;
25758;SDS011;13604;52.496;13.456;2023-09-07T13:01:53;3.58;;;3.28;;
25758;SDS011;13604;52.496;13.456;2023-09-07T13:04:20;9.38;;;3.10;;
25758;SDS011;13604;52.496;13.456;2023-09-07T13:06:46;6.20;;;3.17;;
25758;SDS011;13604;52.496;13.456;2023-09-07T13:09:11;5.00;;;3.50;;
25758;SDS011;13604;52.496;13.456;2023-09-07T13:11:36;4.47;;;3.47;;
25758;SDS011;13604;52.496;13.456;2023-09-07T13:14:02;7.17;;;4.03;;
25758;SDS011;13604;52.496;13.456;2023-09-07T13:16:27;4.30;;;3.83;;
25758;SDS011;13604;52.496;13.456;2023-09-07T13:18:52;6.30;;;3.83;;
25758;SDS011;13604;52.496;13.456;2023-09-07T13:21:18;4.63;;;3.03;;
25758;SDS011;13604;52.496;13.456;2023-09-07T13:23:43;9.15;;;3.47;;
25758;SDS011;13604;52.496;13.456;2023-09-07T13:26:08;4.93;;;3.53;;
25758;SDS011;13604;52.496;13.456;2023-09-07T13:28:34;4.57;;;3.40;;
25758;SDS011;13604;52.496;13.456;2023-09-07T13:30:59;3.53;;;3.23;;
25758;SDS011;13604;52.496;13.456;2023-09-07T13:33:24;4.20;;;3.43;;
25758;SDS011;13604;52.496;13.456;2023-09-07T13:35:50;4.88;;;3.40;;
25758;SDS011;13604;52.496;13.456;2023-09-07T13:38:15;4.60;;;3.10;;
25758;SDS011;13604;52.496;13.456;2023-09-07T13:40:41;4.07;;;3.70;;
25758;SDS011;13604;52.496;13.456;2023-09-07T13:43:06;6.07;;;3.85;;
25758;SDS011;13604;52.496;13.456;2023-09-07T13:45:31;5.53;;;3.35;;
25758;SDS011;13604;52.496;13.456;2023-09-07T13:47:57;5.20;;;3.30;;
25758;SDS011;13604;52.496;13.456;2023-09-07T13:50:22;6.73;;;3.60;;
25758;SDS011;13604;52.496;13.456;2023-09-07T13:52:47;3.20;;;2.90;;
25758;SDS011;13604;52.496;13.456;2023-09-07T13:55:14;3.83;;;3.20;;
25758;SDS011;13604;52.496;13.456;2023-09-07T13:57:39;7.15;;;3.50;;
25758;SDS011;13604;52.496;13.456;2023-09-07T14:00:05;6.93;;;3.63;;
25758;SDS011;13604;52.496;13.456;2023-09-07T14:02:31;6.93;;;3.88;;
25758;SDS011;13604;52.496;13.456;2023-09-07T14:04:57;5.13;;;3.65;;
25758;SDS011;13604;52.496;13.456;2023-09-07T14:07:23;6.15;;;3.38;;
25758;SDS011;13604;52.496;13.456;2023-09-07T14:09:50;6.40;;;4.05;;
25758;SDS011;13604;52.496;13.456;2023-09-07T14:12:16;4.35;;;3.45;;
25758;SDS011;13604;52.496;13.456;2023-09-07T14:14:41;5.50;;;3.77;;
25758;SDS011;13604;52.496;13.456;2023-09-07T14:17:07;5.03;;;3.53;;
25758;SDS011;13604;52.496;13.456;2023-09-07T14:19:32;8.20;;;3.80;;
25758;SDS011;13604;52.496;13.456;2023-09-07T14:21:58;5.23;;;3.63;;
25758;SDS011;13604;52.496;13.456;2023-09-07T14:24:23;4.20;;;3.80;;
25758;SDS011;13604;52.496;13.456;2023-09-07T14:26:49;4.10;;;3.35;;
25758;SDS011;13604;52.496;13.456;2023-09-07T14:29:14;7.03;;;3.50;;